Time;durP1;ratioP1;P1;durP2;ratioP2;P2;SDS_P1;SDS_P2;PMS_P1;PMS_P2;Temp;Humidity;BMP_temperature;BMP_pressure;BME280_temperature;BME280_humidity;BME280_pressure;Samples;Min_cycle;Max_cycle;Signal;HPM_P1;HPM_P2
2023/10/21 00:01:53;;;;;;;24.05;12.95;;;;;;;11.87;79.63;98868.94;5049119;27;96800;-79
2023/10/21 00:04:19;;;;;;;25.95;12.75;;;;;;;11.83;80.23;98878.03;5047568;27;97748;-80
2023/10/21 00:06:45;;;;;;;27.95;13.32;;;;;;;12.06;79.62;98889.66;5047007;27;97573;-79
2023/10/21 00:09:13;;;;;;;28.25;13.43;;;;;;;11.98;79.62;98886.69;5045645;27;98859;-80
2023/10/21 00:11:40;;;;;;;25.95;13.35;;;;;;;11.93;79.97;98888.81;5048580;27;98005;-79
2023/10/21 00:14:08;;;;;;;25.85;13.57;;;;;;;12.16;78.79;98877.44;5048931;27;97949;-80
2023/10/21 00:16:34;;;;;;;26.75;12.95;;;;;;;12.17;78.60;98889.72;5039438;27;99073;-79
2023/10/21 00:19:00;;;;;;;24.83;12.85;;;;;;;12.21;78.41;98915.03;5048404;27;99371;-81
2023/10/21 00:21:27;;;;;;;25.67;13.13;;;;;;;12.14;78.85;98903.16;5046098;27;96831;-80
2023/10/21 00:23:53;;;;;;;26.88;14.50;;;;;;;12.05;78.88;98898.53;5047711;27;98170;-82
2023/10/21 00:26:21;;;;;;;28.73;14.63;;;;;;;12.21;78.57;98896.47;5047763;27;101306;-82
2023/10/21 00:28:47;;;;;;;25.60;13.80;;;;;;;12.55;77.39;98894.91;5049049;27;99047;-82
2023/10/21 00:31:14;;;;;;;28.70;14.23;;;;;;;12.38;77.87;98890.84;5048359;27;96650;-82
2023/10/21 00:33:40;;;;;;;28.40;14.23;;;;;;;12.37;77.94;98886.50;5042283;27;96916;-82
2023/10/21 00:36:07;;;;;;;27.15;14.48;;;;;;;12.48;78.09;98879.56;5048065;27;102266;-80
2023/10/21 00:38:33;;;;;;;28.02;13.93;;;;;;;12.23;78.51;98870.75;5045880;27;98573;-81
2023/10/21 00:41:00;;;;;;;26.30;14.30;;;;;;;12.29;78.02;98875.59;5047416;27;97204;-81
2023/10/21 00:43:38;;;;;;;29.40;14.85;;;;;;;12.40;77.98;98877.50;5049228;27;96882;-81
2023/10/21 00:46:10;;;;;;;28.48;15.02;;;;;;;12.50;77.39;98882.97;5045717;27;99340;-81
2023/10/21 00:48:37;;;;;;;29.10;14.55;;;;;;;12.07;78.94;98886.06;5045767;27;97673;-80
2023/10/21 00:51:04;;;;;;;29.38;14.95;;;;;;;12.35;78.88;98884.91;5049269;27;96751;-81
2023/10/21 00:53:31;;;;;;;28.60;15.60;;;;;;;12.44;77.76;98886.06;5043672;27;96840;-81
2023/10/21 00:55:58;;;;;;;29.20;15.45;;;;;;;12.54;77.87;98895.88;5044413;27;99789;-81
2023/10/21 00:58:27;;;;;;;25.27;15.05;;;;;;;12.40;78.07;98905.78;5042204;27;101122;-81
2023/10/21 01:00:55;;;;;;;28.00;15.07;;;;;;;12.24;78.93;98901.56;5046708;27;96872;-81
2023/10/21 01:03:22;;;;;;;30.70;16.15;;;;;;;12.44;78.37;98894.00;5046545;27;96769;-81
2023/10/21 01:05:48;;;;;;;32.42;16.15;;;;;;;12.35;78.71;98904.28;5044817;27;100361;-82
2023/10/21 01:08:15;;;;;;;31.02;15.43;;;;;;;12.30;78.79;98909.09;5046921;27;97601;-81
2023/10/21 01:10:41;;;;;;;32.35;16.83;;;;;;;12.34;78.69;98910.53;5042645;27;97573;-79
2023/10/21 01:13:08;;;;;;;31.08;16.67;;;;;;;12.32;78.56;98911.63;5043120;27;96827;-79
2023/10/21 01:15:35;;;;;;;30.05;16.30;;;;;;;12.26;79.01;98933.25;5047355;27;101411;-79
2023/10/21 01:18:04;;;;;;;30.55;16.70;;;;;;;11.96;80.52;98930.94;5047783;27;99127;-78
2023/10/21 01:20:30;;;;;;;28.38;16.10;;;;;;;12.04;80.89;98939.19;5047726;27;96805;-77
2023/10/21 01:22:57;;;;;;;32.83;17.13;;;;;;;11.86;81.40;98935.19;5048031;27;96869;-80
2023/10/21 01:25:25;;;;;;;33.85;17.27;;;;;;;11.98;81.29;98923.75;5047025;27;98808;-80
2023/10/21 01:27:53;;;;;;;27.13;15.77;;;;;;;12.05;80.63;98905.63;5048418;27;101805;-80
2023/10/21 01:30:20;;;;;;;34.80;17.60;;;;;;;12.24;79.83;98906.03;5048811;27;96753;-79
2023/10/21 01:32:47;;;;;;;33.60;18.30;;;;;;;12.19;80.03;98909.00;5052429;27;96740;-80
2023/10/21 01:35:13;;;;;;;32.25;16.85;;;;;;;12.41;78.64;98910.94;5048004;27;101833;-79
2023/10/21 01:37:40;;;;;;;39.00;18.10;;;;;;;12.50;78.69;98912.09;5042045;27;99285;-80
2023/10/21 01:40:09;;;;;;;35.45;17.40;;;;;;;12.34;79.32;98923.78;5050978;27;96756;-77
2023/10/21 01:42:37;;;;;;;32.35;17.20;;;;;;;12.28;79.92;98926.88;5050317;27;97215;-77
2023/10/21 01:45:04;;;;;;;38.85;18.88;;;;;;;12.12;80.76;98930.72;5051315;27;98812;-79
2023/10/21 01:47:31;;;;;;;36.50;19.27;;;;;;;12.10;81.17;98924.69;5048192;27;101591;-77
2023/10/21 01:49:59;;;;;;;37.80;19.70;;;;;;;12.21;80.60;98920.31;5051326;27;96908;-77
2023/10/21 01:52:25;;;;;;;35.33;18.90;;;;;;;12.28;80.56;98931.31;5048254;27;97074;-78
2023/10/21 01:54:53;;;;;;;32.97;17.60;;;;;;;12.49;79.50;98921.00;5049356;27;98764;-77
2023/10/21 01:57:19;;;;;;;37.22;19.02;;;;;;;12.38;79.60;98922.63;5051127;27;100279;-78
2023/10/21 01:59:47;;;;;;;38.35;18.63;;;;;;;12.23;80.12;98913.13;5049378;27;96731;-78
2023/10/21 02:02:13;;;;;;;36.42;18.63;;;;;;;12.37;80.02;98909.50;5048922;27;98891;-78
2023/10/21 02:04:40;;;;;;;34.65;19.30;;;;;;;12.47;79.32;98901.75;5047772;27;99306;-78
2023/10/21 02:07:06;;;;;;;39.20;19.23;;;;;;;12.59;79.01;98911.44;5050088;27;98947;-77
2023/10/21 02:09:32;;;;;;;34.72;19.13;;;;;;;12.54;79.14;98908.25;5045314;27;96779;-80
2023/10/21 02:11:59;;;;;;;47.28;20.20;;;;;;;12.42;79.97;98915.28;5044512;27;97436;-81
2023/10/21 02:14:25;;;;;;;39.83;19.15;;;;;;;12.57;79.12;98924.81;5048918;27;98823;-82
2023/10/21 02:16:54;;;;;;;35.80;19.00;;;;;;;12.30;80.05;98924.97;5048141;27;99255;-81
2023/10/21 02:19:21;;;;;;;40.58;19.98;;;;;;;12.68;78.93;98930.16;5046344;27;97217;-80
2023/10/21 02:21:48;;;;;;;37.17;19.25;;;;;;;12.53;79.28;98925.13;5050257;27;98059;-81
2023/10/21 02:24:14;;;;;;;36.95;18.70;;;;;;;12.69;78.76;98926.56;5043792;27;99122;-81
2023/10/21 02:26:41;;;;;;;38.78;19.80;;;;;;;12.75;78.39;98935.84;5049625;27;99059;-81
2023/10/21 02:29:07;;;;;;;38.67;19.17;;;;;;;12.40;79.71;98943.72;5051463;27;96901;-81
2023/10/21 02:31:34;;;;;;;34.63;18.98;;;;;;;12.52;79.42;98945.47;5045108;27;96798;-81
2023/10/21 02:34:02;;;;;;;33.35;18.10;;;;;;;12.47;79.83;98952.06;5051630;27;98877;-81
2023/10/21 02:36:28;;;;;;;37.88;20.05;;;;;;;12.48;80.08;98954.59;5047950;27;97667;-81
2023/10/21 02:38:55;;;;;;;38.25;19.15;;;;;;;12.43;80.55;98950.59;5048296;27;96735;-81
2023/10/21 02:41:21;;;;;;;40.63;19.67;;;;;;;12.47;80.25;98962.66;5050689;27;97110;-81
2023/10/21 02:43:48;;;;;;;39.95;19.63;;;;;;;12.51;79.89;98964.13;5049929;27;99518;-81
2023/10/21 02:46:14;;;;;;;41.47;20.10;;;;;;;12.75;78.91;98972.97;5051302;27;96820;-81
2023/10/21 02:48:43;;;;;;;38.05;20.60;;;;;;;12.65;79.19;98971.94;5050264;27;96864;-81
2023/10/21 02:51:12;;;;;;;43.58;21.65;;;;;;;12.85;78.43;98968.69;5047777;27;97005;-81
2023/10/21 02:53:39;;;;;;;41.38;19.55;;;;;;;12.70;79.21;98970.66;5048887;27;98191;-81
2023/10/21 02:56:06;;;;;;;40.33;20.15;;;;;;;12.65;79.37;98979.91;5052789;27;97685;-81
2023/10/21 02:58:34;;;;;;;39.95;19.83;;;;;;;12.62;79.72;98985.41;5046277;27;97138;-82
2023/10/21 03:01:12;;;;;;;38.70;19.70;;;;;;;12.48;80.44;98991.69;5050453;27;98860;-81
2023/10/21 03:03:38;;;;;;;38.38;20.35;;;;;;;12.64;80.15;98991.44;5051830;27;99335;-79
2023/10/21 03:06:04;;;;;;;45.45;20.45;;;;;;;12.61;80.07;98994.31;5057254;27;98821;-80
2023/10/21 03:08:32;;;;;;;39.47;19.35;;;;;;;12.47;80.50;98994.47;5058502;27;96851;-80
2023/10/21 03:11:03;;;;;;;45.22;20.20;;;;;;;12.37;80.97;98989.81;5059954;27;96814;-80
2023/10/21 03:13:30;;;;;;;42.20;19.85;;;;;;;12.58;80.84;98998.03;5049862;27;100202;-79
2023/10/21 03:15:56;;;;;;;51.28;20.42;;;;;;;12.48;81.52;98990.81;5050632;27;98875;-80
2023/10/21 03:18:23;;;;;;;42.78;20.85;;;;;;;12.64;80.89;98986.16;5049348;27;96729;-79
2023/10/21 03:20:50;;;;;;;43.97;20.80;;;;;;;12.29;82.03;98978.03;5048880;27;96887;-80
2023/10/21 03:23:16;;;;;;;49.40;19.88;;;;;;;12.71;80.28;98990.06;5045402;27;101567;-80
2023/10/21 03:25:44;;;;;;;39.67;20.15;;;;;;;12.67;80.43;98997.34;5049831;27;101072;-80
2023/10/21 03:28:10;;;;;;;45.42;19.52;;;;;;;12.37;81.70;99000.41;5045265;27;97031;-80
2023/10/21 03:30:37;;;;;;;74.35;22.83;;;;;;;12.59;81.25;99004.19;5044003;27;97095;-80
2023/10/21 03:33:04;;;;;;;54.33;21.23;;;;;;;12.87;80.24;99003.88;5049341;27;98760;-80
2023/10/21 03:35:31;;;;;;;41.70;20.70;;;;;;;12.84;79.31;98990.00;5048194;27;101822;-80
2023/10/21 03:37:57;;;;;;;41.88;20.42;;;;;;;12.62;80.83;99003.94;5048877;27;96758;-79
2023/10/21 03:40:24;;;;;;;55.35;20.88;;;;;;;12.69;80.59;99006.06;5037225;27;100211;-79
2023/10/21 03:42:51;;;;;;;42.85;19.85;;;;;;;12.69;81.04;99010.50;5048255;27;97779;-79
2023/10/21 03:45:18;;;;;;;41.83;19.92;;;;;;;12.72;80.75;99005.84;5047221;27;97831;-80
2023/10/21 03:47:46;;;;;;;51.03;20.30;;;;;;;12.73;80.98;99004.06;5048632;27;96715;-81
2023/10/21 03:50:12;;;;;;;45.15;21.40;;;;;;;12.69;81.12;99015.81;5048392;27;96865;-81
2023/10/21 03:52:39;;;;;;;55.17;20.27;;;;;;;12.62;81.96;99017.19;5045930;27;98196;-80
2023/10/21 03:55:07;;;;;;;50.75;20.73;;;;;;;12.56;81.49;99017.63;5047065;27;97777;-79
2023/10/21 03:57:33;;;;;;;40.38;19.73;;;;;;;12.56;81.93;99005.22;5040350;27;97209;-80
2023/10/21 04:00:01;;;;;;;40.53;20.65;;;;;;;12.52;82.39;99009.06;5044809;27;97163;-80
2023/10/21 04:02:27;;;;;;;63.92;19.95;;;;;;;12.64;81.82;99002.03;5046398;27;96709;-79
2023/10/21 04:04:53;;;;;;;52.67;19.45;;;;;;;12.81;81.18;99001.66;5049948;27;97629;-80
2023/10/21 04:07:21;;;;;;;47.67;20.40;;;;;;;12.69;81.65;99006.06;5043041;27;97049;-81
2023/10/21 04:09:47;;;;;;;49.08;20.30;;;;;;;12.71;81.51;98998.00;5049065;27;98130;-80
2023/10/21 04:12:14;;;;;;;44.70;21.42;;;;;;;12.63;81.73;98993.25;5045351;27;99130;-80
2023/10/21 04:14:40;;;;;;;46.03;20.60;;;;;;;12.69;81.66;98986.66;5041680;27;97701;-80
2023/10/21 04:17:08;;;;;;;41.63;20.45;;;;;;;12.75;81.36;98995.00;5044676;27;97542;-80
2023/10/21 04:19:35;;;;;;;49.33;20.15;;;;;;;12.78;80.90;98994.81;5048554;27;96862;-80
2023/10/21 04:22:01;;;;;;;48.30;18.90;;;;;;;12.67;81.90;98999.16;5048407;27;99387;-80
2023/10/21 04:24:28;;;;;;;36.58;19.00;;;;;;;12.56;82.37;99004.38;5047258;27;98207;-80
2023/10/21 04:26:54;;;;;;;45.38;20.02;;;;;;;12.50;82.63;99005.66;5046633;27;96952;-80
2023/10/21 04:29:20;;;;;;;49.70;19.63;;;;;;;12.56;82.78;99014.97;5048651;27;98182;-80
2023/10/21 04:31:47;;;;;;;37.28;18.40;;;;;;;12.65;82.00;99025.78;5048198;27;100791;-81
2023/10/21 04:34:14;;;;;;;48.03;19.65;;;;;;;12.63;82.13;99021.53;5044735;27;99424;-79
2023/10/21 04:36:41;;;;;;;37.92;19.05;;;;;;;12.79;81.46;99014.22;5048146;27;97175;-80
2023/10/21 04:39:08;;;;;;;42.65;18.52;;;;;;;12.49;82.66;99011.91;5048300;27;97099;-80
2023/10/21 04:41:34;;;;;;;48.70;19.85;;;;;;;12.53;82.77;99025.81;5047728;27;98584;-79
2023/10/21 04:44:01;;;;;;;46.05;19.55;;;;;;;12.75;82.39;99029.47;5041894;27;101917;-79
2023/10/21 04:46:27;;;;;;;42.28;19.17;;;;;;;12.54;82.71;99022.19;5036059;27;96769;-79
2023/10/21 04:48:53;;;;;;;46.05;20.08;;;;;;;12.48;83.19;99027.91;5045251;27;99099;-78
2023/10/21 04:51:21;;;;;;;42.22;19.23;;;;;;;12.53;82.97;99026.66;5050330;27;98891;-80
2023/10/21 04:53:48;;;;;;;39.15;19.67;;;;;;;12.75;82.75;99028.63;5045338;27;99112;-79
2023/10/21 04:56:14;;;;;;;36.42;19.60;;;;;;;12.77;82.23;99027.56;5051083;27;97015;-80
2023/10/21 04:58:41;;;;;;;41.53;18.90;;;;;;;12.68;82.48;99030.84;5047517;27;97743;-80
2023/10/21 05:01:10;;;;;;;43.78;19.65;;;;;;;12.57;82.86;99032.59;5040598;27;99254;-80
2023/10/21 05:03:36;;;;;;;39.25;19.48;;;;;;;12.48;83.24;99031.41;5057727;27;100413;-80
2023/10/21 05:06:04;;;;;;;48.10;20.38;;;;;;;12.96;81.67;99028.88;5053896;27;96885;-79
2023/10/21 05:08:33;;;;;;;42.97;20.17;;;;;;;12.86;81.13;99018.13;5057588;27;97011;-79
2023/10/21 05:10:59;;;;;;;38.65;19.70;;;;;;;12.86;81.60;99026.06;5054087;27;99295;-80
2023/10/21 05:13:26;;;;;;;48.42;21.58;;;;;;;13.10;80.72;99026.94;5056945;27;98943;-80
2023/10/21 05:15:52;;;;;;;53.75;20.95;;;;;;;12.84;81.51;99037.72;5059451;27;96936;-80
2023/10/21 05:18:18;;;;;;;43.05;18.65;;;;;;;12.77;82.04;99021.41;5061358;27;97921;-80
2023/10/21 05:20:45;;;;;;;53.45;19.90;;;;;;;12.69;81.38;99019.31;5052861;27;99241;-81
2023/10/21 05:23:12;;;;;;;44.95;18.92;;;;;;;12.77;82.01;99024.91;5055720;27;101177;-80
2023/10/21 05:25:40;;;;;;;42.80;19.67;;;;;;;12.87;81.59;99038.34;5051247;27;98803;-80
2023/10/21 05:28:06;;;;;;;45.75;20.13;;;;;;;12.65;82.66;99048.78;5051611;27;97226;-78
2023/10/21 05:30:32;;;;;;;38.13;19.42;;;;;;;12.41;84.04;99072.53;5046598;27;97822;-81
2023/10/21 05:32:59;;;;;;;38.33;19.50;;;;;;;12.50;83.80;99068.41;5046518;27;100417;-80
2023/10/21 05:35:25;;;;;;;47.15;19.98;;;;;;;12.56;83.54;99065.31;5048080;27;100846;-79
2023/10/21 05:37:52;;;;;;;36.85;19.02;;;;;;;12.70;83.40;99057.25;5049678;27;98380;-79
2023/10/21 05:40:18;;;;;;;36.95;19.77;;;;;;;12.76;82.36;99046.22;5047376;27;98956;-77
2023/10/21 05:42:46;;;;;;;41.25;19.60;;;;;;;13.09;81.35;99030.53;5042609;27;98778;-78
2023/10/21 05:45:12;;;;;;;39.85;19.77;;;;;;;13.17;80.23;99043.28;5043066;27;96753;-78
2023/10/21 05:47:39;;;;;;;39.97;19.98;;;;;;;12.96;80.72;99053.59;5042659;27;97050;-78
2023/10/21 05:50:06;;;;;;;41.20;19.98;;;;;;;12.96;81.60;99058.91;5042303;27;98940;-78
2023/10/21 05:52:33;;;;;;;38.92;19.13;;;;;;;12.94;80.77;99063.44;5040911;27;100353;-78
2023/10/21 05:55:01;;;;;;;46.97;19.77;;;;;;;12.96;81.46;99064.19;5042635;27;97481;-80
2023/10/21 05:57:28;;;;;;;56.03;21.38;;;;;;;12.91;81.70;99073.44;5040887;27;96940;-81
2023/10/21 05:59:55;;;;;;;41.47;18.80;;;;;;;12.87;81.89;99083.41;5043522;27;101756;-81
2023/10/21 06:02:22;;;;;;;53.28;19.33;;;;;;;12.64;82.94;99092.13;5041182;27;98020;-80
2023/10/21 06:04:48;;;;;;;35.88;18.83;;;;;;;12.68;83.37;99089.16;5040342;27;97249;-80
2023/10/21 06:07:15;;;;;;;38.78;18.08;;;;;;;12.75;82.69;99097.53;5044791;27;96887;-79
2023/10/21 06:09:41;;;;;;;44.50;19.88;;;;;;;12.73;82.79;99105.56;5039851;27;99080;-79
2023/10/21 06:12:08;;;;;;;49.67;17.90;;;;;;;12.61;83.54;99108.25;5041090;27;98982;-79
2023/10/21 06:14:35;;;;;;;34.15;18.20;;;;;;;12.70;83.34;99104.97;5044383;27;96914;-81
2023/10/21 06:17:03;;;;;;;42.33;19.10;;;;;;;13.02;82.20;99097.38;5062343;27;96889;-81
2023/10/21 06:19:30;;;;;;;42.05;17.98;;;;;;;12.78;83.48;99099.97;5051789;27;100020;-81
2023/10/21 06:21:56;;;;;;;32.70;18.05;;;;;;;12.97;82.93;99088.91;5054695;27;100394;-81
2023/10/21 06:24:23;;;;;;;31.65;18.15;;;;;;;12.98;82.90;99080.84;5056126;27;97001;-83
2023/10/21 06:26:51;;;;;;;39.15;18.73;;;;;;;13.08;82.66;99088.97;5057503;27;96779;-82
2023/10/21 06:29:18;;;;;;;32.15;18.00;;;;;;;13.27;81.06;99096.47;5060081;27;98615;-81
2023/10/21 06:31:45;;;;;;;47.53;18.17;;;;;;;13.05;82.13;99098.03;5054833;27;97489;-82
2023/10/21 06:34:12;;;;;;;39.42;18.30;;;;;;;13.24;81.57;99105.53;5051929;27;97094;-80
2023/10/21 06:36:39;;;;;;;43.67;18.65;;;;;;;13.31;80.77;99116.53;5054374;27;96845;-82
2023/10/21 06:39:05;;;;;;;33.28;18.48;;;;;;;13.07;82.57;99122.59;5049276;27;98084;-83
2023/10/21 06:41:33;;;;;;;41.45;17.83;;;;;;;13.19;81.74;99125.38;5052694;27;98077;-81
2023/10/21 06:44:00;;;;;;;41.08;17.08;;;;;;;12.96;82.27;99132.28;5046402;27;97247;-82
2023/10/21 06:46:27;;;;;;;34.20;16.88;;;;;;;13.12;82.50;99123.19;5044224;27;97272;-82
2023/10/21 06:48:54;;;;;;;35.65;16.95;;;;;;;13.02;83.13;99114.13;5050259;27;98857;-81
2023/10/21 06:51:22;;;;;;;37.88;16.67;;;;;;;13.03;82.41;99110.53;5052725;27;102017;-81
2023/10/21 06:53:49;;;;;;;37.47;17.42;;;;;;;13.06;82.58;99122.75;5049406;27;97230;-83
2023/10/21 06:56:16;;;;;;;40.88;17.45;;;;;;;12.99;83.59;99132.94;5042922;27;96855;-83
2023/10/21 06:58:47;;;;;;;28.08;16.70;;;;;;;13.21;82.31;99128.75;5042111;27;99679;-82
2023/10/21 07:01:13;;;;;;;34.20;17.05;;;;;;;13.07;82.77;99127.06;5048216;27;97995;-80
2023/10/21 07:03:40;;;;;;;30.85;16.88;;;;;;;12.97;83.45;99137.47;5047359;27;96855;-81
2023/10/21 07:06:06;;;;;;;33.58;16.90;;;;;;;13.12;83.01;99141.75;5051606;27;97308;-81
2023/10/21 07:08:35;;;;;;;36.45;18.13;;;;;;;13.06;83.24;99143.94;5046572;27;99633;-79
2023/10/21 07:11:02;;;;;;;25.42;16.02;;;;;;;13.18;82.95;99151.06;5040716;27;101392;-80
2023/10/21 07:13:29;;;;;;;33.35;17.77;;;;;;;13.31;82.50;99148.38;5044482;27;96809;-80
2023/10/21 07:15:56;;;;;;;36.50;16.95;;;;;;;13.16;82.87;99159.13;5045427;27;97161;-80
2023/10/21 07:18:22;;;;;;;30.92;16.23;;;;;;;13.15;83.13;99170.69;5043839;27;97835;-80
2023/10/21 07:20:57;;;;;;;28.00;15.77;;;;;;;13.20;83.51;99164.19;5048241;27;98872;-80
2023/10/21 07:23:23;;;;;;;27.55;16.42;;;;;;;13.26;82.86;99163.78;5047241;27;97123;-80
2023/10/21 07:25:51;;;;;;;31.17;16.50;;;;;;;13.37;82.80;99171.81;5048969;27;96778;-80
2023/10/21 07:28:18;;;;;;;29.85;17.00;;;;;;;13.47;82.07;99176.34;5049652;27;98926;-80
2023/10/21 07:30:44;;;;;;;24.75;17.00;;;;;;;13.67;81.43;99179.34;5040298;27;98776;-80
2023/10/21 07:33:10;;;;;;;32.58;17.63;;;;;;;13.61;81.37;99180.66;5041057;27;96705;-80
2023/10/21 07:35:38;;;;;;;28.10;16.45;;;;;;;13.62;81.60;99176.19;5042830;27;97158;-80
2023/10/21 07:38:05;;;;;;;31.00;16.00;;;;;;;13.72;81.04;99180.72;5040768;27;100003;-80
2023/10/21 07:40:31;;;;;;;26.88;16.35;;;;;;;13.60;81.67;99186.91;5048041;27;100794;-80
2023/10/21 07:42:59;;;;;;;29.08;16.80;;;;;;;13.75;81.11;99177.84;5044786;27;96834;-80
2023/10/21 07:45:28;;;;;;;26.02;15.65;;;;;;;13.86;80.91;99183.19;5050596;27;96727;-80
2023/10/21 07:47:55;;;;;;;27.67;16.30;;;;;;;13.96;80.26;99178.94;5041705;27;99190;-80
2023/10/21 07:50:21;;;;;;;24.42;16.35;;;;;;;13.83;80.57;99186.09;5047188;27;99178;-81
2023/10/21 07:55:23;;;;;;;26.20;16.60;;;;;;;13.89;80.56;99188.31;5524263;22;98593;-80
2023/10/21 07:57:49;;;;;;;24.80;15.57;;;;;;;14.13;79.98;99190.09;4948992;28;98835;-81
2023/10/21 08:00:18;;;;;;;26.10;16.13;;;;;;;14.00;80.12;99187.50;4949108;28;100837;-80
2023/10/21 08:02:44;;;;;;;25.02;15.98;;;;;;;14.28;79.39;99181.84;4947060;28;96917;-80
2023/10/21 08:05:11;;;;;;;22.00;15.00;;;;;;;14.35;79.93;99187.53;4948810;28;97310;-77
2023/10/21 08:07:38;;;;;;;29.10;15.98;;;;;;;14.56;78.87;99185.09;4947448;28;99248;-79
2023/10/21 08:10:05;;;;;;;25.65;15.00;;;;;;;14.79;77.80;99197.47;4946828;28;101183;-79
2023/10/21 08:12:32;;;;;;;25.00;14.88;;;;;;;15.08;76.90;99200.53;4952703;28;96746;-79
2023/10/21 08:14:59;;;;;;;21.02;14.75;;;;;;;15.13;76.63;99206.31;4947121;28;97076;-79
2023/10/21 08:17:27;;;;;;;20.55;13.98;;;;;;;15.05;76.89;99203.41;4949649;28;101017;-79
2023/10/21 08:19:53;;;;;;;21.50;13.90;;;;;;;14.95;77.33;99205.09;4948885;28;101819;-78
2023/10/21 08:22:19;;;;;;;20.67;14.10;;;;;;;15.01;77.54;99213.47;4950310;28;96788;-78
2023/10/21 08:24:47;;;;;;;22.92;14.05;;;;;;;15.15;76.47;99213.22;4950450;28;96968;-79
2023/10/21 08:27:13;;;;;;;22.25;14.07;;;;;;;15.21;76.50;99216.38;4949719;28;98763;-79
2023/10/21 08:29:41;;;;;;;19.38;14.23;;;;;;;15.11;76.58;99226.88;4948028;28;98750;-80
2023/10/21 08:32:08;;;;;;;20.63;13.88;;;;;;;15.26;75.88;99223.03;4951492;28;97007;-81
2023/10/21 08:34:36;;;;;;;19.63;13.27;;;;;;;15.12;76.63;99228.56;4954202;28;96954;-82
2023/10/21 08:37:04;;;;;;;18.70;13.18;;;;;;;15.10;76.56;99230.50;4946984;28;99165;-81
2023/10/21 08:39:30;;;;;;;19.92;13.70;;;;;;;15.19;76.69;99237.78;4953076;28;99632;-81
2023/10/21 08:41:58;;;;;;;21.88;13.77;;;;;;;15.37;76.17;99235.47;4947390;28;96794;-81
2023/10/21 08:44:25;;;;;;;16.17;12.32;;;;;;;15.46;75.59;99238.25;4950687;28;96717;-82
2023/10/21 08:46:54;;;;;;;18.30;12.73;;;;;;;15.54;75.08;99243.03;4955994;28;98389;-82
2023/10/21 08:49:21;;;;;;;16.13;11.90;;;;;;;15.82;75.00;99252.28;4961160;28;101045;-82
2023/10/21 08:51:52;;;;;;;23.08;12.68;;;;;;;15.80;74.56;99259.56;4950284;28;96721;-84
2023/10/21 08:54:20;;;;;;;16.40;12.48;;;;;;;15.59;75.05;99258.63;4950281;28;96886;-82
2023/10/21 08:56:47;;;;;;;16.88;12.57;;;;;;;15.82;74.78;99268.25;4943868;28;100854;-83
2023/10/21 08:59:14;;;;;;;17.50;13.07;;;;;;;15.89;74.47;99264.13;4952418;28;98908;-82
2023/10/21 09:01:41;;;;;;;20.00;12.98;;;;;;;15.86;74.54;99273.25;4947751;28;96785;-83
2023/10/21 09:04:07;;;;;;;16.92;11.30;;;;;;;15.66;75.71;99262.50;4949533;28;97068;-82
2023/10/21 09:06:34;;;;;;;16.60;12.57;;;;;;;16.04;75.59;99262.06;4947847;28;98822;-81
2023/10/21 09:09:04;;;;;;;17.05;11.15;;;;;;;15.97;75.54;99255.53;4945539;28;99467;-81
2023/10/21 09:11:31;;;;;;;17.15;12.18;;;;;;;16.01;75.62;99262.31;4954902;28;96869;-81
2023/10/21 09:13:59;;;;;;;16.13;11.80;;;;;;;16.29;74.73;99259.06;4951976;28;96849;-82
2023/10/21 09:16:30;;;;;;;16.05;11.10;;;;;;;16.27;74.15;99259.22;4951092;28;100781;-83
2023/10/21 09:19:01;;;;;;;16.85;11.63;;;;;;;16.28;74.94;99263.56;4950642;28;99221;-82
2023/10/21 09:21:33;;;;;;;19.70;10.93;;;;;;;16.17;75.41;99274.25;4944730;28;96870;-83
2023/10/21 09:23:59;;;;;;;14.63;11.15;;;;;;;16.64;73.93;99283.72;4951518;28;96798;-81
2023/10/21 09:26:36;;;;;;;16.55;11.35;;;;;;;16.77;73.46;99277.34;4954722;28;97976;-82
2023/10/21 09:29:07;;;;;;;14.35;10.85;;;;;;;16.77;73.47;99288.88;4949326;28;99265;-81
2023/10/21 09:31:49;;;;;;;14.43;10.98;;;;;;;16.86;73.53;99288.09;4947594;28;97323;-81
2023/10/21 09:34:27;;;;;;;19.65;12.02;;;;;;;17.02;73.23;99284.97;4949602;28;96794;-81
2023/10/21 09:36:54;;;;;;;16.52;10.52;;;;;;;16.90;74.16;99284.19;4949588;28;99015;-82
2023/10/21 09:39:22;;;;;;;16.35;10.73;;;;;;;17.13;73.44;99285.72;4946856;28;99165;-81
2023/10/21 09:41:50;;;;;;;15.30;9.93;;;;;;;17.17;72.97;99296.16;4952288;28;97359;-81
2023/10/21 09:44:18;;;;;;;13.90;9.68;;;;;;;17.27;72.69;99294.38;4967614;28;96855;-81
2023/10/21 09:46:45;;;;;;;16.52;10.50;;;;;;;17.46;71.95;99299.81;4964499;28;96933;-81
2023/10/21 09:49:13;;;;;;;13.50;9.15;;;;;;;17.43;72.54;99295.63;4961903;28;99316;-81
2023/10/21 09:51:53;;;;;;;13.68;9.82;;;;;;;17.76;70.99;99299.88;4967562;28;96920;-81
2023/10/21 09:54:27;;;;;;;14.43;9.40;;;;;;;17.79;71.03;99299.59;4944852;28;98821;-80
2023/10/21 09:56:55;;;;;;;11.93;9.35;;;;;;;17.94;70.77;99308.09;4945436;28;98947;-81
2023/10/21 09:59:23;;;;;;;13.10;9.25;;;;;;;17.63;72.15;99311.78;4950715;28;99845;-83
2023/10/21 10:01:52;;;;;;;11.75;9.13;;;;;;;18.03;70.59;99307.28;4940412;28;96822;-81
2023/10/21 10:04:22;;;;;;;10.35;8.38;;;;;;;18.05;70.48;99315.19;4947314;28;97150;-81
2023/10/21 10:06:57;;;;;;;10.70;8.50;;;;;;;18.13;69.92;99312.66;4948955;28;100785;-81
2023/10/21 10:09:23;;;;;;;11.63;9.45;;;;;;;18.11;70.47;99317.31;4948668;28;100489;-81
2023/10/21 10:11:51;;;;;;;14.05;8.98;;;;;;;18.15;70.89;99310.69;4950732;28;96826;-81
2023/10/21 10:14:19;;;;;;;15.13;8.70;;;;;;;18.42;69.71;99310.03;4951622;28;96871;-81
2023/10/21 10:16:45;;;;;;;11.18;8.27;;;;;;;18.60;69.23;99311.06;4952438;28;100687;-84
2023/10/21 10:19:12;;;;;;;11.38;8.05;;;;;;;18.63;68.96;99319.69;4943213;28;99231;-81
2023/10/21 10:21:42;;;;;;;11.57;7.20;;;;;;;18.65;69.26;99324.88;4950613;28;96886;-80
2023/10/21 10:24:09;;;;;;;9.65;7.65;;;;;;;18.82;68.91;99326.03;4954278;28;96905;-81
2023/10/21 10:26:37;;;;;;;7.30;6.50;;;;;;;18.97;68.48;99322.75;4952434;28;98288;-81
2023/10/21 10:29:25;;;;;;;9.40;7.63;;;;;;;18.92;69.04;99322.34;4950581;28;97790;-83
2023/10/21 10:32:11;;;;;;;8.95;7.03;;;;;;;19.01;68.54;99323.34;4940587;28;98270;-82
2023/10/21 10:34:49;;;;;;;7.95;6.75;;;;;;;19.23;68.65;99328.38;4942020;28;96850;-82
2023/10/21 10:37:26;;;;;;;9.55;6.80;;;;;;;19.52;67.69;99328.34;4943808;28;98178;-80
2023/10/21 10:40:05;;;;;;;9.57;6.60;;;;;;;19.90;66.73;99330.88;4944389;28;99197;-81
2023/10/21 10:42:34;;;;;;;7.90;6.28;;;;;;;19.93;66.16;99329.75;4953712;28;97331;-81
2023/10/21 10:45:03;;;;;;;6.43;5.65;;;;;;;20.07;65.31;99331.97;4946526;28;98334;-82
2023/10/21 10:47:29;;;;;;;6.90;5.75;;;;;;;20.33;65.64;99350.06;4951847;28;99627;-82
2023/10/21 10:49:57;;;;;;;9.65;5.88;;;;;;;20.40;65.61;99345.78;4945593;28;100858;-81
2023/10/21 10:52:28;;;;;;;7.57;5.53;;;;;;;20.58;64.82;99339.44;4948458;28;96747;-83
2023/10/21 10:54:54;;;;;;;7.95;5.20;;;;;;;20.95;63.41;99344.66;4949383;28;97990;-81
2023/10/21 10:57:21;;;;;;;5.00;4.43;;;;;;;21.06;63.30;99355.19;4947694;28;99067;-78
2023/10/21 10:59:49;;;;;;;11.23;4.78;;;;;;;21.05;63.37;99358.88;4950029;28;99364;-79
2023/10/21 11:02:17;;;;;;;5.70;3.88;;;;;;;21.12;63.56;99366.31;4947592;28;99142;-76
2023/10/21 11:04:47;;;;;;;4.97;3.28;;;;;;;21.10;64.40;99374.50;4949332;28;96928;-78
2023/10/21 11:07:13;;;;;;;7.70;3.85;;;;;;;21.22;63.70;99375.13;4945315;28;97635;-79
2023/10/21 11:09:40;;;;;;;4.63;2.72;;;;;;;21.15;64.20;99384.78;4947804;28;101964;-79
2023/10/21 11:12:06;;;;;;;3.38;1.85;;;;;;;20.80;65.71;99378.44;4947396;28;97207;-79
2023/10/21 11:14:34;;;;;;;1.70;1.38;;;;;;;20.52;67.46;99382.97;4947137;28;97305;-79
2023/10/21 11:17:02;;;;;;;1.30;1.20;;;;;;;20.50;67.37;99386.81;4948172;28;99380;-79
2023/10/21 11:19:31;;;;;;;1.20;0.88;;;;;;;20.50;67.18;99393.00;4944603;28;101094;-78
2023/10/21 11:21:58;;;;;;;1.67;0.70;;;;;;;20.28;68.36;99394.22;4947609;28;97452;-77